Terminal Aerodrome Forecast
Issued by NWS

Home | Current Version | Previous Version | Text Only | Print | Product List | Glossary On
Versions: 1 2 3 4 5 6 7 8 9 10 11 12 13
000
FTUS45 KTFX 281150
TAFHLN
TAF
KHLN 281150Z 2812/2912 25007KT P6SM SCT100
     FM282000 01008KT P6SM SCT070 SCT120 PROB30 2822/2902 -TSRA
      BKN070CB
     FM290200 25005KT P6SM SCT120=

USA.gov is the U.S. government's official web portal to all federal, state and local government web resources and services.